Time;durP1;ratioP1;P1;durP2;ratioP2;P2;SDS_P1;SDS_P2;PMS_P1;PMS_P2;Temp;Humidity;BMP_temperature;BMP_pressure;BME280_temperature;BME280_humidity;BME280_pressure;Samples;Min_cycle;Max_cycle;Signal;HPM_P1;HPM_P2
2022/03/04 00:01:15;;;;;;;9.30;1.80;;;;;;;1.23;93.56;100383.67;105038;1272;66849;-70
2022/03/04 00:04:03;;;;;;;9.80;2.00;;;;;;;1.22;93.42;100388.25;105093;1271;71545;-70
2022/03/04 00:06:50;;;;;;;8.70;1.80;;;;;;;1.21;93.39;100384.09;104814;1274;59342;-70
2022/03/04 00:09:37;;;;;;;10.40;1.80;;;;;;;1.21;93.52;100384.29;104773;1271;61338;-69
2022/03/04 00:12:24;;;;;;;6.50;1.60;;;;;;;1.18;93.42;100385.94;105234;1274;73157;-69
2022/03/04 00:15:12;;;;;;;6.70;1.70;;;;;;;1.15;93.39;100387.79;105082;1271;67783;-69
2022/03/04 00:18:00;;;;;;;8.70;2.10;;;;;;;1.14;93.48;100385.04;105059;1271;72690;-69
2022/03/04 00:20:47;;;;;;;10.80;2.10;;;;;;;1.13;93.60;100382.09;104758;1277;59410;-69
2022/03/04 00:23:35;;;;;;;7.80;1.60;;;;;;;1.15;93.37;100382.20;104682;1274;60792;-70
2022/03/04 00:26:22;;;;;;;8.90;1.50;;;;;;;1.14;93.65;100388.17;104571;1274;71044;-69
2022/03/04 00:29:10;;;;;;;8.10;1.30;;;;;;;1.15;93.45;100389.02;104564;1274;66963;-69
2022/03/04 00:31:59;;;;;;;7.20;1.40;;;;;;;1.15;93.38;100389.36;104947;1274;71524;-70
2022/03/04 00:34:46;;;;;;;6.60;1.10;;;;;;;1.14;93.35;100385.38;104823;1275;59521;-69
2022/03/04 00:37:35;;;;;;;9.50;1.60;;;;;;;1.13;93.29;100390.50;104775;1277;59537;-70
2022/03/04 00:40:24;;;;;;;10.60;1.40;;;;;;;1.13;93.45;100389.44;104623;1274;72588;-70
2022/03/04 00:43:12;;;;;;;10.60;1.70;;;;;;;1.10;93.48;100390.59;104878;1274;68155;-71
2022/03/04 00:46:03;;;;;;;7.30;1.30;;;;;;;1.09;93.21;100389.08;104588;1274;73093;-70
2022/03/04 00:48:51;;;;;;;7.70;1.50;;;;;;;1.07;93.18;100387.89;104019;1274;1002956;-70
2022/03/04 00:51:39;;;;;;;8.30;1.60;;;;;;;1.07;93.27;100390.52;104897;1271;59449;-70
2022/03/04 00:54:27;;;;;;;7.10;1.20;;;;;;;1.07;93.20;100390.70;104614;1271;1002807;-70
2022/03/04 00:57:20;;;;;;;7.20;1.40;;;;;;;1.07;93.17;100390.70;104936;1273;68306;-70
2022/03/04 01:00:12;;;;;;;9.10;1.80;;;;;;;1.08;93.11;100391.88;104750;1271;72572;-72
2022/03/04 01:03:05;;;;;;;7.30;1.40;;;;;;;1.09;93.15;100394.11;104969;1271;59403;-70
2022/03/04 01:05:55;;;;;;;6.40;1.20;;;;;;;1.11;92.97;100395.61;104722;1271;60879;-69
2022/03/04 01:08:43;;;;;;;8.10;1.20;;;;;;;1.11;92.79;100395.10;105059;1271;72532;-70
2022/03/04 01:11:31;;;;;;;8.20;1.30;;;;;;;1.13;92.67;100394.17;105196;1274;68743;-69
2022/03/04 01:14:18;;;;;;;7.10;1.00;;;;;;;1.13;92.44;100394.32;104281;1271;1003057;-69
2022/03/04 01:17:06;;;;;;;7.60;1.70;;;;;;;1.13;92.37;100395.75;105156;1271;59202;-70
2022/03/04 01:19:53;;;;;;;8.00;1.50;;;;;;;1.10;92.30;100394.11;104868;1270;59648;-70
2022/03/04 01:22:41;;;;;;;5.20;1.10;;;;;;;1.09;92.27;100388.20;105148;1271;72862;-70
2022/03/04 01:25:32;;;;;;;6.20;1.40;;;;;;;1.09;92.08;100390.81;105219;1274;68272;-70
2022/03/04 01:28:23;;;;;;;7.40;1.20;;;;;;;1.10;92.12;100389.90;105461;1272;71503;-72
2022/03/04 01:31:12;;;;;;;5.20;1.10;;;;;;;1.09;92.02;100394.62;105211;1271;59719;-71
2022/03/04 01:34:00;;;;;;;7.60;1.40;;;;;;;1.11;91.78;100400.00;105539;1271;59371;-71
2022/03/04 01:36:49;;;;;;;7.70;1.20;;;;;;;1.11;91.52;100396.52;105564;1273;71033;-72
2022/03/04 01:39:37;;;;;;;7.90;1.30;;;;;;;1.09;91.63;100400.23;105681;1272;67092;-71
2022/03/04 01:42:27;;;;;;;7.90;1.50;;;;;;;1.09;91.61;100400.60;105756;1271;74096;-71
2022/03/04 01:45:15;;;;;;;9.20;1.40;;;;;;;1.07;91.54;100401.91;105556;1271;59366;-71
2022/03/04 01:48:03;;;;;;;8.20;1.20;;;;;;;1.06;91.27;100401.06;105512;1273;59357;-71
2022/03/04 01:50:53;;;;;;;5.90;1.50;;;;;;;1.05;91.29;100401.77;105737;1271;71589;-70
2022/03/04 01:53:42;;;;;;;6.50;1.30;;;;;;;1.03;91.34;100396.41;105530;1271;66161;-72
2022/03/04 01:56:29;;;;;;;9.40;1.50;;;;;;;1.07;90.96;100396.13;105972;1271;72764;-71
2022/03/04 01:59:17;;;;;;;6.50;1.60;;;;;;;1.10;90.95;100402.48;105769;1271;59209;-72
2022/03/04 02:02:05;;;;;;;7.20;1.30;;;;;;;1.11;90.85;100401.05;105666;1272;59599;-70
2022/03/04 02:04:52;;;;;;;7.80;1.70;;;;;;;1.11;90.43;100397.19;105365;1271;73135;-69
2022/03/04 02:07:39;;;;;;;9.20;1.60;;;;;;;1.09;90.37;100400.59;105198;1271;68143;-69
2022/03/04 02:10:26;;;;;;;6.70;1.60;;;;;;;1.07;89.95;100394.71;105787;1271;71939;-69
2022/03/04 02:13:14;;;;;;;10.30;1.60;;;;;;;1.04;89.79;100393.05;105398;1271;59752;-69
2022/03/04 02:16:01;;;;;;;7.50;1.40;;;;;;;1.01;89.88;100394.91;105552;1271;60452;-70
2022/03/04 02:18:48;;;;;;;10.50;1.20;;;;;;;1.00;90.10;100396.52;105209;1271;71276;-70
2022/03/04 02:21:36;;;;;;;5.00;1.10;;;;;;;0.99;89.97;100393.05;105594;1273;68195;-70
2022/03/04 02:24:27;;;;;;;7.50;1.20;;;;;;;0.99;89.72;100397.39;105188;1271;71641;-70
2022/03/04 02:27:14;;;;;;;7.50;1.40;;;;;;;1.01;89.56;100400.16;105398;1274;59394;-70
2022/03/04 02:30:04;;;;;;;8.30;1.50;;;;;;;1.00;89.59;100398.59;104428;1271;1002847;-70
2022/03/04 02:32:52;;;;;;;9.10;1.70;;;;;;;0.99;89.30;100398.46;104517;1271;1003276;-70
2022/03/04 02:35:41;;;;;;;7.70;1.20;;;;;;;0.97;89.23;100400.79;105354;1270;68089;-70
2022/03/04 02:38:27;;;;;;;9.20;1.60;;;;;;;0.95;89.17;100402.42;105357;1271;70886;-69
2022/03/04 02:41:20;;;;;;;7.10;1.20;;;;;;;0.93;89.09;100404.94;105442;1271;59232;-70
2022/03/04 02:44:11;;;;;;;6.60;1.30;;;;;;;0.95;89.29;100405.42;105348;1271;59773;-69
2022/03/04 02:46:58;;;;;;;7.90;1.30;;;;;;;0.94;89.03;100405.97;105280;1273;72511;-69
2022/03/04 02:49:45;;;;;;;8.50;1.50;;;;;;;0.94;89.03;100408.77;104986;1276;66817;-69
2022/03/04 02:52:32;;;;;;;5.60;1.10;;;;;;;0.93;89.04;100408.79;104942;1277;71832;-69
2022/03/04 02:55:19;;;;;;;10.70;1.40;;;;;;;0.92;88.95;100411.44;104747;1277;59741;-69
2022/03/04 02:58:09;;;;;;;9.70;1.80;;;;;;;0.90;88.82;100411.68;104078;1276;1015431;-69
2022/03/04 03:00:56;;;;;;;6.20;1.30;;;;;;;0.89;88.87;100411.88;103698;1275;1003121;-69
2022/03/04 03:03:44;;;;;;;7.90;1.40;;;;;;;0.89;88.76;100411.73;104771;1275;66661;-69
2022/03/04 03:06:31;;;;;;;7.70;2.10;;;;;;;0.86;88.48;100414.08;105069;1274;71790;-70
2022/03/04 03:09:18;;;;;;;7.20;1.20;;;;;;;0.89;88.26;100412.95;104585;1275;59391;-69
2022/03/04 03:12:06;;;;;;;5.90;1.20;;;;;;;0.89;88.08;100415.56;104776;1274;60727;-69
2022/03/04 03:14:54;;;;;;;6.40;1.50;;;;;;;0.91;88.02;100417.77;104733;1277;71351;-69
2022/03/04 03:17:47;;;;;;;8.80;1.30;;;;;;;0.92;88.00;100418.98;104567;1275;67761;-69
2022/03/04 03:20:35;;;;;;;6.70;1.40;;;;;;;0.91;87.79;100426.30;104717;1271;73083;-69
2022/03/04 03:23:21;;;;;;;5.50;1.20;;;;;;;0.89;87.55;100426.73;104942;1271;59316;-69
2022/03/04 03:26:09;;;;;;;7.80;1.40;;;;;;;0.89;87.79;100429.17;104394;1271;1002935;-70
2022/03/04 03:28:56;;;;;;;8.00;1.20;;;;;;;0.87;87.39;100435.52;105167;1271;70941;-70
2022/03/04 03:31:46;;;;;;;9.90;1.60;;;;;;;0.86;87.45;100431.89;104295;1273;1003057;-70
2022/03/04 03:34:34;;;;;;;8.40;1.30;;;;;;;0.86;87.36;100432.26;104866;1273;70573;-70
2022/03/04 03:37:21;;;;;;;8.10;1.20;;;;;;;0.86;87.34;100435.04;105188;1271;59641;-69
2022/03/04 03:40:11;;;;;;;8.60;1.30;;;;;;;0.89;87.15;100438.11;105072;1271;59363;-69
2022/03/04 03:43:01;;;;;;;7.70;1.20;;;;;;;0.90;86.89;100436.50;104771;1272;71554;-69
2022/03/04 03:45:48;;;;;;;6.00;1.20;;;;;;;0.91;86.61;100436.12;105158;1273;68000;-70
2022/03/04 03:48:40;;;;;;;6.30;1.20;;;;;;;0.94;86.65;100439.34;105382;1271;73411;-69
2022/03/04 03:51:27;;;;;;;8.20;1.10;;;;;;;0.95;86.59;100440.02;104918;1271;59291;-70
2022/03/04 03:54:17;;;;;;;6.30;1.20;;;;;;;0.95;86.47;100442.81;105169;1271;60915;-70
2022/03/04 03:57:04;;;;;;;7.70;1.10;;;;;;;0.93;86.53;100442.52;104944;1271;72528;-70
2022/03/04 03:59:53;;;;;;;6.80;1.50;;;;;;;0.94;86.70;100441.27;105061;1271;67534;-70
2022/03/04 04:02:41;;;;;;;4.90;1.10;;;;;;;0.95;86.53;100437.90;104911;1271;72000;-69
2022/03/04 04:05:29;;;;;;;8.90;1.10;;;;;;;0.96;86.44;100435.42;105040;1271;59783;-69
2022/03/04 04:08:16;;;;;;;8.70;1.60;;;;;;;0.98;86.54;100438.70;105009;1272;59688;-68
2022/03/04 04:11:05;;;;;;;8.90;1.60;;;;;;;1.01;86.57;100441.56;104790;1271;71106;-69
2022/03/04 04:13:52;;;;;;;7.80;1.50;;;;;;;1.02;86.46;100437.50;104829;1271;68391;-68
2022/03/04 04:16:42;;;;;;;6.40;1.20;;;;;;;1.05;86.49;100435.86;104883;1272;73235;-69
2022/03/04 04:19:30;;;;;;;5.50;1.00;;;;;;;1.03;86.51;100437.66;104768;1274;59400;-71
2022/03/04 04:22:19;;;;;;;6.20;1.10;;;;;;;1.03;86.53;100439.25;104254;1274;1003335;-70
2022/03/04 04:25:08;;;;;;;8.90;1.10;;;;;;;1.01;86.68;100440.00;104969;1274;71283;-70
2022/03/04 04:27:57;;;;;;;9.10;1.50;;;;;;;0.99;86.69;100442.86;104928;1271;68074;-71
2022/03/04 04:30:46;;;;;;;7.70;1.40;;;;;;;0.94;86.97;100440.39;105320;1271;72801;-71
2022/03/04 04:33:34;;;;;;;7.70;1.60;;;;;;;0.89;87.08;100439.32;104988;1271;59313;-72
2022/03/04 04:36:21;;;;;;;8.50;1.70;;;;;;;0.85;86.99;100442.41;104977;1271;60477;-69
2022/03/04 04:39:09;;;;;;;6.80;1.40;;;;;;;0.80;87.18;100442.92;105055;1271;72831;-68
2022/03/04 04:41:56;;;;;;;8.00;1.40;;;;;;;0.77;87.45;100439.54;104747;1273;66555;-69
2022/03/04 04:44:46;;;;;;;6.80;1.30;;;;;;;0.75;87.91;100442.39;105637;1271;73399;-69
2022/03/04 04:47:34;;;;;;;6.60;1.50;;;;;;;0.74;88.17;100445.58;105222;1273;59205;-69
2022/03/04 04:50:25;;;;;;;6.00;1.40;;;;;;;0.74;88.27;100441.71;105005;1274;59851;-70
2022/03/04 04:53:14;;;;;;;7.00;1.60;;;;;;;0.73;88.65;100441.05;105130;1273;72523;-71
2022/03/04 04:56:03;;;;;;;8.10;1.90;;;;;;;0.72;88.55;100443.52;105289;1271;68182;-69
2022/03/04 04:58:50;;;;;;;7.10;1.50;;;;;;;0.71;88.68;100438.66;105227;1271;72996;-71
2022/03/04 05:01:39;;;;;;;8.00;1.70;;;;;;;0.69;88.83;100439.75;104703;1271;1003326;-71
2022/03/04 05:04:26;;;;;;;7.00;1.60;;;;;;;0.66;88.74;100443.16;105145;1271;60615;-70
2022/03/04 05:07:14;;;;;;;6.40;1.70;;;;;;;0.64;89.24;100448.14;105483;1271;72006;-70
2022/03/04 05:10:04;;;;;;;6.60;1.70;;;;;;;0.62;89.19;100447.84;105040;1271;67084;-71
2022/03/04 05:12:54;;;;;;;10.70;1.80;;;;;;;0.59;89.28;100443.91;105209;1271;72908;-71
2022/03/04 05:15:42;;;;;;;7.60;1.50;;;;;;;0.55;89.55;100449.45;104922;1271;59300;-72
2022/03/04 05:18:31;;;;;;;7.00;1.60;;;;;;;0.52;90.04;100453.73;104992;1271;60959;-71
2022/03/04 05:21:19;;;;;;;7.10;1.80;;;;;;;0.48;89.94;100458.89;104719;1271;71255;-71
2022/03/04 05:24:12;;;;;;;9.60;1.60;;;;;;;0.44;90.41;100457.98;105243;1272;68255;-71
2022/03/04 05:26:59;;;;;;;7.30;1.60;;;;;;;0.41;91.16;100457.89;104634;1271;1002912;-71
2022/03/04 05:29:46;;;;;;;8.00;1.70;;;;;;;0.40;91.53;100459.66;105324;1271;59295;-73
2022/03/04 05:32:34;;;;;;;6.50;1.70;;;;;;;0.41;91.80;100465.39;105314;1271;59677;-70
2022/03/04 05:35:21;;;;;;;11.10;2.10;;;;;;;0.43;92.26;100462.89;105061;1272;71777;-69
2022/03/04 05:38:12;;;;;;;6.00;1.50;;;;;;;0.46;92.79;100468.73;105146;1271;1003092;-74
2022/03/04 05:41:04;;;;;;;6.10;1.50;;;;;;;0.54;92.90;100473.41;104960;1271;70455;-69
2022/03/04 05:43:53;;;;;;;7.30;1.50;;;;;;;0.60;93.19;100476.39;105223;1271;59330;-68
2022/03/04 05:46:46;;;;;;;8.50;1.70;;;;;;;0.65;92.97;100475.70;105403;1274;61026;-71
2022/03/04 05:49:41;;;;;;;6.80;1.70;;;;;;;0.67;92.88;100475.97;105221;1271;72465;-70
2022/03/04 05:52:28;;;;;;;7.60;1.40;;;;;;;0.70;92.60;100481.84;105249;1271;66972;-70
2022/03/04 05:55:16;;;;;;;6.60;1.50;;;;;;;0.71;92.69;100483.91;105401;1271;74068;-72
2022/03/04 05:58:03;;;;;;;8.10;1.60;;;;;;;0.70;92.45;100485.85;105210;1272;59288;-70
2022/03/04 06:00:52;;;;;;;6.80;1.40;;;;;;;0.70;92.46;100493.55;104119;1271;1003411;-71
2022/03/04 06:03:40;;;;;;;8.70;1.60;;;;;;;0.71;92.37;100493.33;105558;1271;72939;-73
2022/03/04 06:06:28;;;;;;;6.90;1.40;;;;;;;0.75;92.16;100495.15;105215;1271;68555;-72
2022/03/04 06:09:21;;;;;;;6.40;1.30;;;;;;;0.82;92.00;100502.60;105370;1271;72921;-70
2022/03/04 06:12:12;;;;;;;5.20;1.20;;;;;;;0.87;91.32;100507.16;105244;1273;59288;-71
2022/03/04 06:15:02;;;;;;;8.80;1.70;;;;;;;0.91;90.86;100512.12;105287;1271;59348;-71
2022/03/04 06:17:54;;;;;;;6.70;1.50;;;;;;;0.96;90.27;100514.75;104655;1271;1003630;-71
2022/03/04 06:20:52;;;;;;;6.90;1.70;;;;;;;1.02;89.78;100514.05;104766;1272;1003001;-69
2022/03/04 06:23:42;;;;;;;9.80;1.70;;;;;;;1.07;89.66;100511.80;105445;1271;71652;-71
2022/03/04 06:26:35;;;;;;;8.10;1.90;;;;;;;1.15;89.45;100511.20;105659;1271;59300;-71
2022/03/04 06:29:23;;;;;;;5.30;1.50;;;;;;;1.20;89.14;100512.24;105289;1272;59493;-70
2022/03/04 06:32:11;;;;;;;9.50;1.60;;;;;;;1.26;88.88;100512.77;104975;1271;69976;-72
2022/03/04 06:34:58;;;;;;;7.50;1.60;;;;;;;1.30;88.69;100516.33;105097;1271;66916;-71
2022/03/04 06:37:49;;;;;;;7.80;1.80;;;;;;;1.32;88.65;100516.77;105059;1271;72698;-70
2022/03/04 06:40:40;;;;;;;7.70;1.70;;;;;;;1.35;88.43;100521.94;105168;1272;59312;-70
2022/03/04 06:43:30;;;;;;;9.00;1.80;;;;;;;1.39;88.44;100528.27;105059;1271;60471;-71
2022/03/04 06:46:27;;;;;;;7.00;2.30;;;;;;;1.45;87.99;100528.08;104882;1274;72567;-73
2022/03/04 06:49:27;;;;;;;10.40;2.90;;;;;;;1.51;87.54;100526.32;105329;1272;66877;-73
2022/03/04 06:52:24;;;;;;;10.10;3.50;;;;;;;1.63;87.41;100533.42;105555;1271;72051;-72
2022/03/04 06:55:45;;;;;;;7.00;2.10;;;;;;;1.71;86.73;100529.16;105539;1271;59281;-75
2022/03/04 06:58:40;;;;;;;6.60;1.90;;;;;;;1.82;86.20;100543.63;105562;1274;59443;-72
2022/03/04 07:01:27;;;;;;;7.30;2.10;;;;;;;1.87;85.86;100546.11;105112;1271;72316;-70
2022/03/04 07:04:15;;;;;;;8.40;1.70;;;;;;;1.90;85.62;100545.30;105003;1271;68059;-71
2022/03/04 07:07:03;;;;;;;9.50;2.10;;;;;;;1.95;85.19;100546.71;105251;1271;71812;-72
2022/03/04 07:09:50;;;;;;;8.20;1.50;;;;;;;2.02;84.68;100545.79;105208;1271;59266;-71
2022/03/04 07:12:37;;;;;;;6.30;1.70;;;;;;;2.08;84.65;100549.08;105432;1272;60369;-71
2022/03/04 07:15:24;;;;;;;7.40;1.70;;;;;;;2.10;84.12;100552.84;105364;1271;71110;-70
2022/03/04 07:18:12;;;;;;;8.00;1.70;;;;;;;2.11;83.99;100554.73;105059;1270;69053;-72
2022/03/04 07:21:00;;;;;;;7.50;1.90;;;;;;;2.12;83.85;100558.41;105218;1275;71338;-73
2022/03/04 07:23:52;;;;;;;9.20;1.90;;;;;;;2.14;83.88;100557.80;105303;1272;59311;-71
2022/03/04 07:26:44;;;;;;;7.50;1.80;;;;;;;2.20;83.73;100563.71;105414;1271;59390;-72
2022/03/04 07:29:39;;;;;;;8.20;1.80;;;;;;;2.27;83.24;100568.21;105373;1271;72631;-72
2022/03/04 07:32:27;;;;;;;8.00;1.70;;;;;;;2.27;82.70;100568.38;105624;1271;68217;-72
2022/03/04 07:35:24;;;;;;;8.10;1.70;;;;;;;2.22;82.53;100570.28;105704;1271;72908;-72
2022/03/04 07:38:29;;;;;;;9.40;1.90;;;;;;;2.17;82.89;100577.33;105186;1271;59450;-71
2022/03/04 07:41:18;;;;;;;7.70;1.80;;;;;;;2.14;83.04;100581.27;105621;1271;59751;-71
2022/03/04 07:44:06;;;;;;;7.50;1.70;;;;;;;2.10;83.07;100585.77;105087;1271;71172;-72
2022/03/04 07:46:53;;;;;;;7.00;1.90;;;;;;;2.05;83.00;100588.21;105271;1271;68045;-72
2022/03/04 07:49:43;;;;;;;6.50;1.80;;;;;;;2.03;83.31;100587.39;105047;1274;71937;-70
2022/03/04 07:52:33;;;;;;;8.00;1.60;;;;;;;2.06;83.11;100593.98;105363;1271;59419;-71
2022/03/04 07:55:26;;;;;;;8.40;2.90;;;;;;;2.05;83.24;100594.70;105091;1271;59382;-70
2022/03/04 07:58:16;;;;;;;10.50;3.00;;;;;;;2.06;83.38;100596.92;105234;1271;72397;-70
2022/03/04 08:01:07;;;;;;;10.30;4.60;;;;;;;2.04;83.73;100596.45;105370;1271;68085;-72
2022/03/04 08:04:13;;;;;;;9.00;2.80;;;;;;;2.08;83.78;100600.19;105178;1274;71317;-71
2022/03/04 08:07:10;;;;;;;8.50;2.20;;;;;;;2.09;83.70;100606.64;105838;1271;59401;-70
2022/03/04 08:10:08;;;;;;;7.10;1.70;;;;;;;2.08;83.65;100607.90;106052;1271;59311;-70
2022/03/04 08:13:04;;;;;;;6.90;1.50;;;;;;;2.10;83.51;100617.27;105199;1271;1003190;-72
2022/03/04 08:15:54;;;;;;;7.00;1.80;;;;;;;2.11;83.70;100618.63;105362;1272;66657;-71
2022/03/04 08:18:47;;;;;;;6.80;1.90;;;;;;;2.13;83.72;100617.02;104620;1271;1003050;-73
2022/03/04 08:21:36;;;;;;;8.10;2.00;;;;;;;2.16;83.86;100623.74;105653;1271;59284;-71
2022/03/04 08:24:32;;;;;;;5.70;1.70;;;;;;;2.16;83.92;100623.38;105223;1271;60135;-71
2022/03/04 08:27:44;;;;;;;9.00;1.90;;;;;;;2.18;84.18;100624.02;105594;1271;72704;-72
2022/03/04 08:30:38;;;;;;;7.00;1.80;;;;;;;2.17;83.69;100631.40;105614;1271;66761;-71
2022/03/04 08:33:31;;;;;;;7.20;1.60;;;;;;;2.18;83.86;100629.95;105539;1271;73315;-71
2022/03/04 08:36:18;;;;;;;7.30;1.80;;;;;;;2.25;83.78;100630.79;105365;1271;59550;-71
2022/03/04 08:39:08;;;;;;;7.30;2.00;;;;;;;2.28;83.54;100634.19;105304;1271;60868;-72
2022/03/04 08:41:58;;;;;;;8.30;1.70;;;;;;;2.34;83.60;100638.86;105060;1271;72457;-72
2022/03/04 08:44:45;;;;;;;8.20;1.80;;;;;;;2.35;82.90;100638.49;105684;1271;67454;-72
2022/03/04 08:47:33;;;;;;;8.40;2.10;;;;;;;2.37;83.07;100642.98;105128;1274;72811;-73
2022/03/04 08:50:21;;;;;;;8.50;2.00;;;;;;;2.37;83.02;100649.81;105440;1274;59185;-72
2022/03/04 08:53:12;;;;;;;7.90;1.80;;;;;;;2.34;82.74;100653.41;105394;1271;59361;-71
2022/03/04 08:56:06;;;;;;;7.80;1.80;;;;;;;2.31;82.58;100655.77;105104;1272;70989;-71
2022/03/04 08:58:53;;;;;;;7.00;1.60;;;;;;;2.27;82.77;100656.47;105212;1274;68027;-70
2022/03/04 09:01:41;;;;;;;9.40;3.60;;;;;;;2.24;83.12;100663.05;104737;1274;73337;-71
2022/03/04 09:04:29;;;;;;;9.80;2.90;;;;;;;2.25;83.34;100667.55;105239;1271;59238;-70
2022/03/04 09:07:17;;;;;;;9.50;2.00;;;;;;;2.22;82.90;100672.56;104639;1271;1003025;-72
2022/03/04 09:10:06;;;;;;;7.80;2.00;;;;;;;2.14;83.18;100673.01;105229;1271;73055;-70
2022/03/04 09:12:56;;;;;;;6.40;1.80;;;;;;;2.06;83.24;100680.60;105767;1271;68499;-71
2022/03/04 09:15:44;;;;;;;8.50;2.20;;;;;;;2.07;83.58;100680.41;105205;1271;71459;-73
2022/03/04 09:18:31;;;;;;;7.20;2.00;;;;;;;2.14;83.93;100684.38;105147;1274;59425;-71
2022/03/04 09:21:20;;;;;;;6.90;1.70;;;;;;;2.18;83.79;100688.98;105152;1271;59832;-71
2022/03/04 09:24:10;;;;;;;5.70;1.90;;;;;;;2.20;83.50;100687.65;105207;1274;72653;-69
2022/03/04 09:26:59;;;;;;;7.50;1.70;;;;;;;2.16;83.29;100689.39;105311;1271;66876;-69
2022/03/04 09:29:46;;;;;;;6.10;1.80;;;;;;;2.14;83.62;100694.20;105456;1271;72868;-70
2022/03/04 09:32:37;;;;;;;7.10;1.70;;;;;;;2.12;83.75;100691.80;105395;1271;59413;-71
2022/03/04 09:35:25;;;;;;;6.60;1.80;;;;;;;2.08;83.74;100697.34;105188;1271;59637;-71
2022/03/04 09:38:12;;;;;;;8.60;2.10;;;;;;;2.02;83.79;100697.34;105373;1271;73843;-70
2022/03/04 09:41:00;;;;;;;7.90;2.00;;;;;;;1.98;84.24;100698.17;105443;1271;67171;-70
2022/03/04 09:43:48;;;;;;;7.40;2.00;;;;;;;1.90;84.33;100705.29;105348;1271;73020;-70
2022/03/04 09:46:40;;;;;;;7.30;1.80;;;;;;;1.80;84.60;100704.88;104817;1271;1003130;-71
2022/03/04 09:49:37;;;;;;;6.50;2.00;;;;;;;1.77;84.92;100710.04;104685;1271;1003302;-69
2022/03/04 09:52:25;;;;;;;8.40;2.30;;;;;;;1.79;85.20;100711.91;105366;1271;71503;-70
2022/03/04 09:55:13;;;;;;;8.30;1.90;;;;;;;1.83;85.38;100716.52;104980;1271;67074;-70
2022/03/04 09:58:01;;;;;;;7.60;2.30;;;;;;;1.88;85.31;100715.99;105344;1271;72697;-70
2022/03/04 10:00:48;;;;;;;7.40;2.30;;;;;;;1.95;85.22;100714.05;105219;1271;59231;-69
2022/03/04 10:03:44;;;;;;;7.80;2.20;;;;;;;2.01;84.97;100710.88;105406;1271;60540;-71
2022/03/04 10:06:32;;;;;;;6.10;1.70;;;;;;;2.09;84.96;100715.88;105074;1271;72559;-69
2022/03/04 10:09:37;;;;;;;6.00;2.00;;;;;;;2.13;84.89;100717.15;105118;1271;68020;-71
2022/03/04 10:12:24;;;;;;;6.90;1.90;;;;;;;2.11;84.49;100713.19;105294;1271;71777;-71
2022/03/04 10:15:11;;;;;;;5.60;1.80;;;;;;;2.08;84.50;100712.58;104953;1271;59280;-70
2022/03/04 10:18:05;;;;;;;9.50;2.00;;;;;;;2.08;84.48;100713.96;105043;1271;59414;-73
2022/03/04 10:20:52;;;;;;;6.30;1.70;;;;;;;2.07;84.61;100717.17;105126;1271;72306;-70
2022/03/04 10:23:42;;;;;;;7.70;1.80;;;;;;;1.98;84.18;100712.36;104225;1271;1003511;-71
2022/03/04 10:26:30;;;;;;;8.10;2.10;;;;;;;1.90;84.65;100713.84;105021;1271;72951;-70
2022/03/04 10:29:24;;;;;;;7.10;1.80;;;;;;;1.86;84.84;100716.92;105269;1271;59300;-71
2022/03/04 10:32:27;;;;;;;8.80;1.70;;;;;;;1.88;85.26;100714.79;105318;1271;61024;-70
2022/03/04 10:35:14;;;;;;;6.70;1.70;;;;;;;1.89;84.46;100716.85;105482;1271;72395;-70
2022/03/04 10:38:04;;;;;;;8.50;2.10;;;;;;;1.92;84.27;100717.11;105283;1271;68496;-71
2022/03/04 10:40:52;;;;;;;6.80;1.70;;;;;;;1.99;83.72;100718.11;105008;1271;71815;-71
2022/03/04 10:43:40;;;;;;;6.20;1.70;;;;;;;2.09;82.72;100715.54;105103;1271;59360;-71
2022/03/04 10:46:48;;;;;;;6.90;1.70;;;;;;;2.29;82.43;100720.81;105336;1271;60844;-72
2022/03/04 10:49:36;;;;;;;8.20;1.90;;;;;;;2.69;79.92;100712.33;105830;1271;72572;-71
2022/03/04 10:52:24;;;;;;;7.50;2.30;;;;;;;3.05;78.69;100714.17;105409;1271;66743;-70
2022/03/04 10:55:12;;;;;;;7.50;1.90;;;;;;;3.29;76.96;100714.04;105132;1271;72863;-70
2022/03/04 10:58:03;;;;;;;5.60;1.90;;;;;;;3.66;76.37;100717.89;105247;1271;59292;-71
2022/03/04 11:00:54;;;;;;;8.70;2.90;;;;;;;6.63;71.50;100704.21;105065;1272;59358;-73
2022/03/04 11:03:47;;;;;;;9.10;2.10;;;;;;;9.38;61.32;100689.73;105240;1272;72689;-74
2022/03/04 11:06:38;;;;;;;5.40;1.40;;;;;;;9.93;53.77;100685.17;105738;1271;67493;-72
2022/03/04 11:09:30;;;;;;;7.90;1.70;;;;;;;9.29;53.12;100687.79;105837;1271;73022;-72
2022/03/04 11:12:17;;;;;;;5.20;1.10;;;;;;;8.71;51.90;100691.16;105278;1271;59766;-71
2022/03/04 11:15:04;;;;;;;8.80;2.60;;;;;;;8.44;54.14;100687.09;104954;1271;59476;-71
2022/03/04 11:17:52;;;;;;;5.90;1.50;;;;;;;8.47;52.41;100686.02;105150;1271;73211;-74
2022/03/04 11:20:46;;;;;;;7.40;1.50;;;;;;;8.36;52.40;100685.77;105242;1271;66826;-73
2022/03/04 11:23:37;;;;;;;7.70;1.70;;;;;;;7.67;53.94;100693.91;105472;1271;73232;-74
2022/03/04 11:26:30;;;;;;;6.70;1.80;;;;;;;7.15;56.54;100691.79;105214;1271;59747;-72
2022/03/04 11:29:35;;;;;;;6.50;1.70;;;;;;;6.67;57.39;100697.27;105026;1271;59814;-72
2022/03/04 11:32:29;;;;;;;6.40;1.70;;;;;;;6.48;57.72;100696.11;104989;1271;72417;-73
2022/03/04 11:35:42;;;;;;;6.50;1.80;;;;;;;6.79;57.93;100697.55;105231;1271;66884;-72
2022/03/04 11:38:49;;;;;;;7.40;1.80;;;;;;;7.21;57.24;100694.97;105244;1271;73300;-71
2022/03/04 11:41:46;;;;;;;7.40;1.50;;;;;;;6.91;56.51;100698.88;105184;1271;59674;-71
2022/03/04 11:44:51;;;;;;;6.20;1.70;;;;;;;6.63;58.05;100698.73;104956;1271;60733;-71
2022/03/04 11:47:43;;;;;;;6.50;2.00;;;;;;;6.37;57.70;100701.77;105433;1271;71716;-72
2022/03/04 11:50:58;;;;;;;6.00;1.50;;;;;;;6.11;58.72;100700.05;105193;1271;66499;-70
2022/03/04 11:54:25;;;;;;;6.60;1.60;;;;;;;5.97;59.49;100700.03;104962;1271;73263;-73
2022/03/04 11:57:29;;;;;;;7.90;1.50;;;;;;;5.75;59.19;100705.30;105854;1273;58856;-75
2022/03/04 12:00:24;;;;;;;5.90;1.40;;;;;;;5.59;59.74;100704.98;105316;1271;59323;-74
2022/03/04 12:03:16;;;;;;;9.10;1.80;;;;;;;6.02;59.47;100706.66;105777;1271;72380;-76
2022/03/04 12:06:23;;;;;;;7.90;1.80;;;;;;;6.20;58.20;100708.47;105308;1271;68118;-77
2022/03/04 12:09:31;;;;;;;9.80;2.00;;;;;;;6.25;57.89;100706.80;105209;1271;72032;-76
2022/03/04 12:12:23;;;;;;;6.50;1.30;;;;;;;6.29;56.61;100702.73;105754;1271;59281;-71
2022/03/04 12:15:15;;;;;;;4.60;1.10;;;;;;;6.09;56.06;100706.52;105526;1271;60915;-72
2022/03/04 12:18:13;;;;;;;5.40;1.40;;;;;;;5.89;56.21;100702.86;105426;1271;72447;-73
2022/03/04 12:21:22;;;;;;;5.70;1.30;;;;;;;5.67;56.69;100705.65;104972;1271;68203;-74
2022/03/04 12:24:10;;;;;;;5.10;1.40;;;;;;;5.62;57.38;100703.10;105512;1271;72907;-75
2022/03/04 12:27:03;;;;;;;8.60;1.40;;;;;;;5.75;57.25;100700.55;105379;1271;59273;-72
2022/03/04 12:29:50;;;;;;;7.50;1.30;;;;;;;5.59;57.62;100702.88;105183;1271;59354;-74
2022/03/04 12:32:48;;;;;;;5.40;1.40;;;;;;;5.44;57.59;100701.80;105208;1271;71289;-73
2022/03/04 12:35:38;;;;;;;5.30;1.30;;;;;;;5.51;57.19;100703.41;106087;1271;68178;-74
2022/03/04 12:38:36;;;;;;;6.00;1.40;;;;;;;5.65;56.10;100699.59;105477;1271;73257;-73
2022/03/04 12:41:33;;;;;;;6.80;1.50;;;;;;;5.95;55.82;100698.70;105196;1271;59278;-74
2022/03/04 12:44:27;;;;;;;5.90;1.30;;;;;;;5.76;55.06;100699.60;104254;1271;1002987;-74
2022/03/04 12:47:15;;;;;;;7.90;1.60;;;;;;;5.42;55.37;100701.88;105264;1271;72493;-74
2022/03/04 12:50:07;;;;;;;6.10;1.40;;;;;;;5.49;56.50;100700.33;105160;1271;66526;-72
2022/03/04 12:52:54;;;;;;;6.20;1.30;;;;;;;5.82;55.32;100703.89;104856;1276;72912;-73
2022/03/04 12:55:41;;;;;;;5.60;1.30;;;;;;;5.89;54.76;100699.52;104827;1276;59736;-72
2022/03/04 12:59:05;;;;;;;7.00;1.30;;;;;;;5.77;53.95;100700.95;104856;1276;60427;-74
2022/03/04 13:01:55;;;;;;;4.90;1.10;;;;;;;5.92;52.31;100707.85;104543;1282;71809;-72
2022/03/04 13:05:02;;;;;;;5.20;1.20;;;;;;;5.91;50.31;100706.09;104519;1281;68239;-73
2022/03/04 13:08:01;;;;;;;4.30;1.00;;;;;;;5.86;50.12;100709.36;103894;1282;72546;-73
2022/03/04 13:10:49;;;;;;;6.90;1.70;;;;;;;5.86;50.09;100709.39;104421;1282;59427;-73
2022/03/04 13:13:53;;;;;;;15.70;3.70;;;;;;;5.98;50.26;100711.28;104256;1282;59410;-72